Decoded Metar for PAOO (TOKSOOK BAY in AK, USA) (IATA:N/A) | Meteo·Mobile Aviation Weather
aviador You're here:

PAOO Decoded Metar

TOKSOOK BAY in AK, USA
Report Time2019-03-23 20:18:00
UTC Time2019-03-23 20:28:55
Flight Rules mvfr MVFR
Wind080° at 14 kt
W.Decomp.*RWY 34: 0.5 kt HW 14.0 kt RCW
W.Rank080° ranks 11
Current wind is above 080° avg. (12.0)
Visibility9999 m
Phenomena:Light Rain
Clouds:Few 008 Hf
Broken 022 Hf
Overcast 030 Hf
Ceiling2,200 ft
Temp01°C (ISA -14)
Dew Point01°C (100% RH)
AAT-5.9°C
QNH994 hPa
Density Alt-889 ft
Elevation59 ft
Report Wrong Elevation
Raw Report
PAOO 232018Z AUTO 08014KT 7SM -RA FEW008 BKN022 OVC030 01/01 A2935
RMK AO2 P0000 FZRANO=

Extra information for PAOO:More info

Metar Taf Metar & Taf Last 4 Metars F.Rules Stats Wind Profile Meteogram Temp Stats Airport Information Weather charts Add Link Nearby VenuesMetar ALERT Operation Metar Decoded Social comments

AIRNAV info for PAOO